createdAt,value
2018-03-19T00:01:45.381Z,-1.20
2018-03-19T00:04:12.922Z,-1.10
2018-03-19T00:06:40.424Z,-1.20
2018-03-19T00:09:08.798Z,-1.20
2018-03-19T00:11:37.067Z,-1.30
2018-03-19T00:14:04.807Z,-1.20
2018-03-19T00:16:32.307Z,-1.20
2018-03-19T00:18:59.964Z,-1.20
2018-03-19T00:21:27.504Z,-1.20
2018-03-19T00:23:55.790Z,-1.20
2018-03-19T00:26:24.060Z,-1.30
2018-03-19T00:28:52.345Z,-1.30
2018-03-19T00:31:20.599Z,-1.30
2018-03-19T00:33:48.189Z,-1.30
2018-03-19T00:36:15.850Z,-1.30
2018-03-19T00:38:44.136Z,-1.30
2018-03-19T00:41:11.622Z,-1.30
2018-03-19T00:43:39.167Z,-1.20
2018-03-19T00:46:06.706Z,-1.20
2018-03-19T00:48:34.235Z,-1.20
2018-03-19T00:51:01.747Z,-1.20
2018-03-19T00:53:29.270Z,-1.30
2018-03-19T00:55:57.555Z,-1.40
2018-03-19T00:58:25.108Z,-1.40
2018-03-19T01:00:53.402Z,-1.40
2018-03-19T01:03:20.924Z,-1.40
2018-03-19T01:05:48.421Z,-1.40
2018-03-19T01:08:15.942Z,-1.30
2018-03-19T01:10:43.463Z,-1.40
2018-03-19T01:13:10.990Z,-1.40
2018-03-19T01:15:38.488Z,-1.50
2018-03-19T01:18:06.004Z,-1.40
2018-03-19T01:20:33.516Z,-1.40
2018-03-19T01:23:01.028Z,-1.40
2018-03-19T01:25:28.560Z,-1.50
2018-03-19T01:27:56.846Z,-1.50
2018-03-19T01:30:25.125Z,-1.40
2018-03-19T01:32:53.408Z,-1.50
2018-03-19T01:35:20.909Z,-1.50
2018-03-19T01:37:48.422Z,-1.60
2018-03-19T01:40:15.931Z,-1.60
2018-03-19T01:42:43.450Z,-1.50
2018-03-19T01:45:10.954Z,-1.60
2018-03-19T01:47:38.515Z,-1.60
2018-03-19T01:50:06.803Z,-1.60
2018-03-19T01:52:46.466Z,-1.60
2018-03-19T01:55:14.724Z,-1.50
2018-03-19T01:57:42.247Z,-1.60
2018-03-19T02:00:09.751Z,-1.50
2018-03-19T02:02:38.214Z,-1.60
2018-03-19T02:05:05.724Z,-1.60
2018-03-19T02:07:33.252Z,-1.60
2018-03-19T02:10:01.512Z,-1.60
2018-03-19T02:12:29.070Z,-1.60
2018-03-19T02:14:56.705Z,-1.50
2018-03-19T02:17:24.202Z,-1.50
2018-03-19T02:19:52.524Z,-1.40
2018-03-19T02:22:20.016Z,-1.40
2018-03-19T02:24:47.569Z,-1.40
2018-03-19T02:27:15.075Z,-1.50
2018-03-19T02:29:42.597Z,-1.50
2018-03-19T02:32:10.187Z,-1.50
2018-03-19T02:34:38.500Z,-1.40
2018-03-19T02:37:06.017Z,-1.40
2018-03-19T02:39:34.403Z,-1.50
2018-03-19T02:42:01.985Z,-1.50
2018-03-19T02:44:29.478Z,-1.50
2018-03-19T02:46:57.047Z,-1.60
2018-03-19T02:49:24.538Z,-1.60
2018-03-19T02:51:52.953Z,-1.50
2018-03-19T02:54:21.224Z,-1.50
2018-03-19T02:56:48.778Z,-1.50
2018-03-19T02:59:16.321Z,-1.50
2018-03-19T03:01:44.621Z,-1.50
2018-03-19T03:04:12.102Z,-1.50
2018-03-19T03:06:39.667Z,-1.50
2018-03-19T03:09:07.172Z,-1.40
2018-03-19T03:11:34.687Z,-1.50
2018-03-19T03:14:02.241Z,-1.40
2018-03-19T03:16:29.742Z,-1.50
2018-03-19T03:18:57.992Z,-1.60
2018-03-19T03:21:25.537Z,-1.60
2018-03-19T03:23:53.126Z,-1.60
2018-03-19T03:26:21.506Z,-1.70
2018-03-19T03:28:49.773Z,-1.70
2018-03-19T03:31:17.301Z,-1.70
2018-03-19T03:33:44.795Z,-1.80
2018-03-19T03:36:13.079Z,-1.80
2018-03-19T03:38:41.363Z,-1.70
2018-03-19T03:41:08.889Z,-1.80
2018-03-19T03:43:36.406Z,-1.80
2018-03-19T03:46:03.921Z,-1.70
2018-03-19T03:48:32.215Z,-1.70
2018-03-19T03:50:59.767Z,-1.70
2018-03-19T03:53:28.145Z,-1.80
2018-03-19T03:55:56.443Z,-1.80
2018-03-19T03:58:23.977Z,-1.80
2018-03-19T04:00:52.262Z,-1.90
2018-03-19T04:03:20.547Z,-1.90
2018-03-19T04:05:48.205Z,-1.90
2018-03-19T04:08:15.715Z,-1.80
2018-03-19T04:10:43.226Z,-1.80
2018-03-19T04:13:10.736Z,-1.80
2018-03-19T04:15:38.243Z,-1.90
2018-03-19T04:18:05.743Z,-1.90
2018-03-19T04:20:33.301Z,-1.80
2018-03-19T04:23:00.826Z,-1.80
2018-03-19T04:25:28.340Z,-1.90
2018-03-19T04:27:56.541Z,-2.00
2018-03-19T04:30:24.819Z,-1.90
2018-03-19T04:32:52.325Z,-2.00
2018-03-19T04:35:19.948Z,-2.00
2018-03-19T04:37:47.452Z,-2.00
2018-03-19T04:40:14.992Z,-2.00
2018-03-19T04:42:42.485Z,-2.00
2018-03-19T04:45:10.047Z,-2.00
2018-03-19T04:47:37.575Z,-2.00
2018-03-19T04:50:05.296Z,-2.00
2018-03-19T04:52:33.547Z,-2.00
2018-03-19T04:55:01.052Z,-2.10
2018-03-19T04:57:28.587Z,-2.00
2018-03-19T04:59:56.911Z,-2.10
2018-03-19T05:02:24.523Z,-2.10
2018-03-19T05:04:52.084Z,-2.20
2018-03-19T05:07:19.608Z,-2.20
2018-03-19T05:09:47.137Z,-2.20
2018-03-19T05:12:14.668Z,-2.30
2018-03-19T05:14:42.188Z,-2.20
2018-03-19T05:17:09.684Z,-2.20
2018-03-19T05:19:37.212Z,-2.10
2018-03-19T05:22:04.748Z,-2.20
2018-03-19T05:24:32.331Z,-2.10
2018-03-19T05:26:59.924Z,-2.00
2018-03-19T05:29:28.284Z,-2.00
2018-03-19T05:31:56.579Z,-2.00
2018-03-19T05:34:24.880Z,-2.20
2018-03-19T05:36:52.407Z,-2.20
2018-03-19T05:39:19.949Z,-2.10
2018-03-19T05:41:48.344Z,-2.20
2018-03-19T05:44:16.844Z,-2.20
2018-03-19T05:46:44.344Z,-2.30
2018-03-19T05:49:12.037Z,-2.20
2018-03-19T05:51:40.412Z,-2.10
2018-03-19T05:54:08.685Z,-2.10
2018-03-19T05:56:36.999Z,-2.10
2018-03-19T05:59:04.558Z,-2.10
2018-03-19T06:01:32.152Z,-2.10
2018-03-19T06:03:59.760Z,-2.00
2018-03-19T06:06:27.790Z,-2.00
2018-03-19T06:08:55.948Z,-2.00
2018-03-19T06:11:23.522Z,-2.00
2018-03-19T06:13:51.886Z,-2.00
2018-03-19T06:16:19.380Z,-2.00
2018-03-19T06:18:47.672Z,-1.70
2018-03-19T06:21:26.203Z,-1.70
2018-03-19T06:23:53.771Z,-1.80
2018-03-19T06:26:21.278Z,-1.90
2018-03-19T06:28:48.988Z,-1.90
2018-03-19T06:31:16.545Z,-1.90
2018-03-19T06:33:44.052Z,-1.90
2018-03-19T06:36:11.604Z,-1.90
2018-03-19T06:38:39.172Z,-1.90
2018-03-19T06:41:06.745Z,-1.90
2018-03-19T06:43:35.004Z,-1.90
2018-03-19T06:46:02.567Z,-1.90
2018-03-19T06:48:30.055Z,-1.90
2018-03-19T06:50:58.382Z,-1.90
2018-03-19T06:53:26.002Z,-1.90
2018-03-19T06:55:54.393Z,-1.90
2018-03-19T06:58:21.900Z,-1.90
2018-03-19T07:00:49.413Z,-2.00
2018-03-19T07:03:16.953Z,-2.00
2018-03-19T07:05:44.532Z,-2.00
2018-03-19T07:08:12.152Z,-2.10
2018-03-19T07:10:40.544Z,-2.00
2018-03-19T07:13:08.848Z,-2.00
2018-03-19T07:15:36.390Z,-2.00
2018-03-19T07:18:03.907Z,-2.00
2018-03-19T07:20:31.497Z,-2.00
2018-03-19T07:22:59.786Z,-2.10
2018-03-19T07:25:27.378Z,-2.10
2018-03-19T07:27:56.379Z,-2.10
2018-03-19T07:30:23.897Z,-2.00
2018-03-19T07:32:51.444Z,-1.90
2018-03-19T07:35:18.940Z,-2.00
2018-03-19T07:37:46.555Z,-2.00
2018-03-19T07:40:14.942Z,-1.70
2018-03-19T07:42:43.245Z,-1.70
2018-03-19T07:45:10.741Z,-1.70
2018-03-19T07:47:38.242Z,-1.60
2018-03-19T07:50:05.947Z,-1.60
2018-03-19T07:52:33.481Z,-1.60
2018-03-19T07:55:01.078Z,-1.60
2018-03-19T07:57:30.536Z,-1.60
2018-03-19T07:59:58.039Z,-1.70
2018-03-19T08:02:25.674Z,-1.70
2018-03-19T08:04:53.195Z,-1.70
2018-03-19T08:07:21.557Z,-1.60
2018-03-19T08:09:49.145Z,-1.60
2018-03-19T08:12:16.780Z,-1.50
2018-03-19T08:14:44.218Z,-1.50
2018-03-19T08:17:11.764Z,-1.50
2018-03-19T08:19:39.271Z,-1.60
2018-03-19T08:22:06.851Z,-1.50
2018-03-19T08:24:34.394Z,-1.50
2018-03-19T08:27:08.695Z,-1.50
2018-03-19T08:29:36.970Z,-1.40
2018-03-19T08:32:05.260Z,-1.40
2018-03-19T08:34:33.555Z,-1.40
2018-03-19T08:37:01.098Z,-1.40
2018-03-19T08:39:29.471Z,-1.20
2018-03-19T08:41:57.764Z,-1.20
2018-03-19T08:44:25.261Z,-1.10
2018-03-19T08:46:52.813Z,-1.00
2018-03-19T08:49:20.424Z,-0.90
2018-03-19T08:51:48.730Z,-0.70
2018-03-19T08:54:16.231Z,-0.70
2018-03-19T08:56:43.772Z,-0.50
2018-03-19T08:59:11.266Z,-0.30
2018-03-19T09:01:39.551Z,0.10
2018-03-19T09:04:07.818Z,0.80
2018-03-19T09:06:36.156Z,1.40
2018-03-19T09:09:03.816Z,1.40
2018-03-19T09:11:31.352Z,1.80
2018-03-19T09:13:58.877Z,2.20
2018-03-19T09:16:26.378Z,2.80
2018-03-19T09:18:53.906Z,3.30
2018-03-19T09:21:22.259Z,4.00
2018-03-19T09:23:49.735Z,4.00
2018-03-19T09:26:18.047Z,3.50
2018-03-19T09:28:45.570Z,3.50
2018-03-19T09:31:13.881Z,3.20
2018-03-19T09:33:41.364Z,3.20
2018-03-19T09:36:08.896Z,3.00
2018-03-19T09:38:36.411Z,3.10
2018-03-19T09:41:04.762Z,3.70
2018-03-19T09:43:32.252Z,3.70
2018-03-19T09:46:00.552Z,3.70
2018-03-19T09:48:28.061Z,3.70
2018-03-19T09:50:55.705Z,3.80
2018-03-19T09:53:23.283Z,4.10
2018-03-19T09:55:51.964Z,4.60
2018-03-19T09:58:19.453Z,5.10
2018-03-19T10:00:47.806Z,4.10
2018-03-19T10:03:15.315Z,4.00
2018-03-19T10:05:42.887Z,3.80
2018-03-19T10:08:10.396Z,3.80
2018-03-19T10:10:37.939Z,4.00
2018-03-19T10:13:05.548Z,4.40
2018-03-19T10:15:33.083Z,4.60
2018-03-19T10:18:00.651Z,4.70
2018-03-19T10:20:29.031Z,4.80
2018-03-19T10:22:57.313Z,5.10
2018-03-19T10:25:25.613Z,5.20
2018-03-19T10:27:53.107Z,5.20
2018-03-19T10:30:20.639Z,5.20
2018-03-19T10:32:48.131Z,5.20
2018-03-19T10:35:15.663Z,5.00
2018-03-19T10:37:43.152Z,5.40
2018-03-19T10:40:10.734Z,5.80
2018-03-19T10:42:39.816Z,6.30
2018-03-19T10:45:08.220Z,5.80
2018-03-19T10:47:35.746Z,5.70
2018-03-19T10:53:09.123Z,5.50
2018-03-19T10:55:36.658Z,6.00
2018-03-19T10:58:04.943Z,5.90
2018-03-19T11:00:32.461Z,5.90
2018-03-19T11:03:05.645Z,5.70
2018-03-19T11:08:34.581Z,5.90
2018-03-19T11:11:02.884Z,6.70
2018-03-19T11:13:30.391Z,6.60
2018-03-19T11:15:57.968Z,6.00
2018-03-19T11:18:25.514Z,5.50
2018-03-19T11:20:53.062Z,6.20
2018-03-19T11:23:20.586Z,6.60
2018-03-19T11:25:48.102Z,6.90
2018-03-19T11:28:15.651Z,6.80
2018-03-19T11:30:43.377Z,6.50
2018-03-19T11:33:10.922Z,6.30
2018-03-19T11:35:39.210Z,6.60
2018-03-19T11:38:06.702Z,6.60
2018-03-19T11:40:34.307Z,6.50
2018-03-19T11:43:02.675Z,6.50
2018-03-19T11:45:30.951Z,6.70
2018-03-19T11:47:59.248Z,6.40
2018-03-19T11:50:26.789Z,6.40
2018-03-19T11:52:55.103Z,6.20
2018-03-19T11:55:23.439Z,6.10
2018-03-19T11:57:51.733Z,6.20
2018-03-19T12:00:19.402Z,6.20
2018-03-19T12:02:46.936Z,6.30
2018-03-19T12:05:15.326Z,5.70
2018-03-19T12:07:43.584Z,5.90
2018-03-19T12:10:11.919Z,6.10
2018-03-19T12:12:39.416Z,6.00
2018-03-19T12:15:06.944Z,6.10
2018-03-19T12:17:34.456Z,5.80
2018-03-19T12:20:02.780Z,5.60
2018-03-19T12:22:30.395Z,5.60
2018-03-19T12:24:58.778Z,5.80
2018-03-19T12:27:26.308Z,5.80
2018-03-19T12:29:53.890Z,5.60
2018-03-19T12:32:22.270Z,5.60
2018-03-19T12:34:50.540Z,5.40
2018-03-19T12:37:18.928Z,5.30
2018-03-19T12:39:46.465Z,5.30
2018-03-19T12:42:13.982Z,5.50
2018-03-19T12:44:41.512Z,5.50
2018-03-19T12:47:09.000Z,5.40
2018-03-19T12:49:36.626Z,5.40
2018-03-19T12:52:04.231Z,5.40
2018-03-19T12:54:31.732Z,5.30
2018-03-19T12:57:00.003Z,5.20
2018-03-19T12:59:28.384Z,5.00
2018-03-19T13:01:56.668Z,4.90
2018-03-19T13:04:24.191Z,4.90
2018-03-19T13:06:51.709Z,4.90
2018-03-19T13:09:19.371Z,4.80
2018-03-19T13:11:46.856Z,5.00
2018-03-19T13:14:14.371Z,5.20
2018-03-19T13:16:41.867Z,5.20
2018-03-19T13:19:09.543Z,5.40
2018-03-19T13:21:37.091Z,5.50
2018-03-19T13:24:04.623Z,5.50
2018-03-19T13:26:32.120Z,5.50
2018-03-19T13:28:59.643Z,5.40
2018-03-19T13:31:27.131Z,5.50
2018-03-19T13:33:54.779Z,5.50
2018-03-19T13:36:22.310Z,5.50
2018-03-19T13:38:49.839Z,5.50
2018-03-19T13:41:18.120Z,5.40
2018-03-19T13:43:46.405Z,5.40
2018-03-19T13:46:14.679Z,5.50
2018-03-19T13:48:42.947Z,5.60
2018-03-19T13:51:11.219Z,5.80
2018-03-19T13:53:38.760Z,5.80
2018-03-19T13:56:06.242Z,5.60
2018-03-19T13:58:34.675Z,5.40
2018-03-19T14:01:02.184Z,5.50
2018-03-19T14:03:30.469Z,5.40
2018-03-19T14:05:58.718Z,5.50
2018-03-19T14:08:26.290Z,5.50
2018-03-19T14:10:54.567Z,5.70
2018-03-19T14:13:22.875Z,5.60
2018-03-19T14:15:50.389Z,5.60
2018-03-19T14:18:17.898Z,5.60
2018-03-19T14:20:45.386Z,5.70
2018-03-19T14:23:12.887Z,5.80
2018-03-19T14:25:40.596Z,5.80
2018-03-19T14:28:08.848Z,5.90
2018-03-19T14:30:37.085Z,5.70
2018-03-19T14:33:05.366Z,5.60
2018-03-19T14:35:33.625Z,5.60
2018-03-19T14:38:01.456Z,5.50
2018-03-19T14:40:28.935Z,5.50
2018-03-19T14:42:56.465Z,5.60
2018-03-19T14:45:23.996Z,5.60
2018-03-19T14:47:52.362Z,5.70
2018-03-19T14:50:20.634Z,5.70
2018-03-19T14:52:49.114Z,5.60
2018-03-19T14:55:16.722Z,5.60
2018-03-19T14:57:44.443Z,5.70
2018-03-19T15:00:11.939Z,5.70
2018-03-19T15:02:39.468Z,5.70
2018-03-19T15:05:07.721Z,5.60
2018-03-19T15:07:35.247Z,5.60
2018-03-19T15:10:02.735Z,5.60
2018-03-19T15:12:30.271Z,5.70
2018-03-19T15:14:57.807Z,5.70
2018-03-19T15:17:25.292Z,5.70
2018-03-19T15:19:52.842Z,5.60
2018-03-19T15:22:20.351Z,5.60
2018-03-19T15:24:48.631Z,5.50
2018-03-19T15:27:16.198Z,5.50
2018-03-19T15:29:43.864Z,5.50
2018-03-19T15:32:11.370Z,5.50
2018-03-19T15:34:38.909Z,5.50
2018-03-19T15:37:06.423Z,5.50
2018-03-19T15:39:34.712Z,5.50
2018-03-19T15:42:02.227Z,5.50
2018-03-19T15:44:29.760Z,5.40
2018-03-19T15:46:57.240Z,5.30
2018-03-19T15:49:24.880Z,5.30
2018-03-19T15:51:53.117Z,5.20
2018-03-19T15:54:21.399Z,5.10
2018-03-19T15:56:48.919Z,5.10
2018-03-19T15:59:16.428Z,5.00
2018-03-19T16:01:43.997Z,5.10
2018-03-19T16:04:11.599Z,5.00
2018-03-19T16:06:39.196Z,4.90
2018-03-19T16:09:07.465Z,4.80
2018-03-19T16:11:35.714Z,4.80
2018-03-19T16:14:03.408Z,4.80
2018-03-19T16:16:30.903Z,4.70
2018-03-19T16:18:58.519Z,4.70
2018-03-19T16:21:26.793Z,4.70
2018-03-19T16:23:55.075Z,4.70
2018-03-19T16:26:23.332Z,4.60
2018-03-19T16:28:51.638Z,4.50
2018-03-19T16:31:19.131Z,4.50
2018-03-19T16:33:46.741Z,4.40
2018-03-19T16:36:15.013Z,4.40
2018-03-19T16:38:43.342Z,4.40
2018-03-19T16:41:10.856Z,4.40
2018-03-19T16:43:39.128Z,4.30
2018-03-19T16:46:07.379Z,4.20
2018-03-19T16:48:34.990Z,4.20
2018-03-19T16:51:02.467Z,4.00
2018-03-19T16:53:30.067Z,3.90
2018-03-19T16:55:57.564Z,3.80
2018-03-19T16:58:25.079Z,3.60
2018-03-19T17:00:52.577Z,3.50
2018-03-19T17:03:20.307Z,3.40
2018-03-19T17:05:47.848Z,3.40
2018-03-19T17:08:15.381Z,3.30
2018-03-19T17:10:42.869Z,3.30
2018-03-19T17:13:10.383Z,3.20
2018-03-19T17:15:38.023Z,3.20
2018-03-19T17:18:05.530Z,3.10
2018-03-19T17:20:33.366Z,3.10
2018-03-19T17:23:00.911Z,3.00
2018-03-19T17:25:29.311Z,2.90
2018-03-19T17:27:56.803Z,2.90
2018-03-19T17:30:24.464Z,2.80
2018-03-19T17:32:51.924Z,2.80
2018-03-19T17:35:19.515Z,2.80
2018-03-19T17:37:47.803Z,2.70
2018-03-19T17:40:15.433Z,2.70
2018-03-19T17:42:43.235Z,2.70
2018-03-19T17:45:10.756Z,2.60
2018-03-19T17:47:38.315Z,2.60
2018-03-19T17:50:05.803Z,2.50
2018-03-19T17:52:33.335Z,2.50
2018-03-19T17:55:00.907Z,2.40
2018-03-19T17:57:29.246Z,2.40
2018-03-19T17:59:56.866Z,2.40
2018-03-19T18:02:24.456Z,2.30
2018-03-19T18:04:52.656Z,2.30
2018-03-19T18:07:20.247Z,2.30
2018-03-19T18:09:48.644Z,2.20
2018-03-19T18:12:16.453Z,2.20
2018-03-19T18:14:43.998Z,2.20
2018-03-19T18:17:11.554Z,2.20
2018-03-19T18:19:39.147Z,2.10
2018-03-19T18:22:06.826Z,2.10
2018-03-19T18:24:34.540Z,2.10
2018-03-19T18:27:02.189Z,2.10
2018-03-19T18:29:29.759Z,2.00
2018-03-19T18:32:00.379Z,2.00
2018-03-19T18:34:27.924Z,1.90
2018-03-19T18:36:55.422Z,1.90
2018-03-19T18:39:23.042Z,1.90
2018-03-19T18:41:50.666Z,1.80
2018-03-19T18:44:18.196Z,1.80
2018-03-19T18:46:45.700Z,1.80
2018-03-19T18:49:13.991Z,1.70
2018-03-19T18:51:42.347Z,1.70
2018-03-19T18:54:10.669Z,1.60
2018-03-19T18:56:38.306Z,1.60
2018-03-19T18:59:05.870Z,1.60
2018-03-19T19:01:33.384Z,1.60
2018-03-19T19:04:00.902Z,1.60
2018-03-19T19:06:28.408Z,1.60
2018-03-19T19:08:55.936Z,1.60
2018-03-19T19:11:23.478Z,1.50
2018-03-19T19:13:50.979Z,1.50
2018-03-19T19:16:18.482Z,1.40
2018-03-19T19:18:46.025Z,1.50
2018-03-19T19:21:14.292Z,1.40
2018-03-19T19:23:42.606Z,1.40
2018-03-19T19:26:10.126Z,1.40
2018-03-19T19:28:37.686Z,1.30
2018-03-19T19:31:05.248Z,1.30
2018-03-19T19:33:32.790Z,1.30
2018-03-19T19:36:00.326Z,1.30
2018-03-19T19:38:27.882Z,1.20
2018-03-19T19:40:55.385Z,1.20
2018-03-19T19:43:23.700Z,1.20
2018-03-19T19:45:51.219Z,1.10
2018-03-19T19:48:18.746Z,1.10
2018-03-19T19:50:46.266Z,1.20
2018-03-19T19:53:13.912Z,1.10
2018-03-19T19:55:42.211Z,1.10
2018-03-19T19:58:09.896Z,1.10
2018-03-19T20:00:37.392Z,1.10
2018-03-19T20:03:04.930Z,1.10
2018-03-19T20:05:32.465Z,1.10
2018-03-19T20:08:00.014Z,1.00
2018-03-19T20:10:27.539Z,1.00
2018-03-19T20:12:55.860Z,1.00
2018-03-19T20:15:23.577Z,1.00
2018-03-19T20:17:50.990Z,1.00
2018-03-19T20:20:18.558Z,1.00
2018-03-19T20:22:46.106Z,1.00
2018-03-19T20:25:13.625Z,0.90
2018-03-19T20:27:41.942Z,0.90
2018-03-19T20:30:09.493Z,0.90
2018-03-19T20:32:37.143Z,0.80
2018-03-19T20:35:04.657Z,0.90
2018-03-19T20:37:32.187Z,0.80
2018-03-19T20:39:59.706Z,0.80
2018-03-19T20:42:27.264Z,0.80
2018-03-19T20:44:54.798Z,0.80
2018-03-19T20:47:22.400Z,0.80
2018-03-19T20:49:49.920Z,0.80
2018-03-19T20:52:17.434Z,0.70
2018-03-19T20:54:44.981Z,0.70
2018-03-19T20:57:12.509Z,0.70
2018-03-19T20:59:40.172Z,0.70
2018-03-19T21:02:07.727Z,0.60
2018-03-19T21:04:36.029Z,0.60
2018-03-19T21:07:03.706Z,0.60
2018-03-19T21:09:31.278Z,0.60
2018-03-19T21:11:58.792Z,0.60
2018-03-19T21:14:26.311Z,0.60
2018-03-19T21:16:53.854Z,0.60
2018-03-19T21:19:21.388Z,0.50
2018-03-19T21:21:49.060Z,0.50
2018-03-19T21:24:16.549Z,0.50
2018-03-19T21:26:44.093Z,0.50
2018-03-19T21:29:11.735Z,0.50
2018-03-19T21:31:39.292Z,0.50
2018-03-19T21:34:06.857Z,0.50
2018-03-19T21:36:34.760Z,0.50
2018-03-19T21:39:03.056Z,0.50
2018-03-19T21:41:31.383Z,0.50
2018-03-19T21:43:58.960Z,0.50
2018-03-19T21:46:26.530Z,0.50
2018-03-19T21:48:54.046Z,0.50
2018-03-19T21:51:21.624Z,0.40
2018-03-19T21:53:49.177Z,0.40
2018-03-19T21:56:16.740Z,0.40
2018-03-19T21:58:44.254Z,0.40
2018-03-19T22:01:12.662Z,0.30
2018-03-19T22:03:40.176Z,0.30
2018-03-19T22:06:13.472Z,0.30
2018-03-19T22:08:41.032Z,0.30
2018-03-19T22:11:09.307Z,0.30
2018-03-19T22:13:37.703Z,0.30
2018-03-19T22:16:05.292Z,0.30
2018-03-19T22:18:32.819Z,0.30
2018-03-19T22:21:00.323Z,0.30
2018-03-19T22:23:27.947Z,0.30
2018-03-19T22:25:55.451Z,0.30
2018-03-19T22:28:23.051Z,0.30
2018-03-19T22:30:51.331Z,0.30
2018-03-19T22:33:19.680Z,0.30
2018-03-19T22:35:47.272Z,0.30
2018-03-19T22:38:15.747Z,0.30
2018-03-19T22:40:44.019Z,0.20
2018-03-19T22:43:12.388Z,0.20
2018-03-19T22:45:39.869Z,0.20
2018-03-19T22:48:07.426Z,0.10
2018-03-19T22:50:34.928Z,0.00
2018-03-19T22:53:02.456Z,0.00
2018-03-19T22:55:29.959Z,-0.10
2018-03-19T22:57:57.488Z,-0.10
2018-03-19T23:00:25.014Z,-0.10
2018-03-19T23:02:53.390Z,-0.10
2018-03-19T23:05:22.416Z,0.00
2018-03-19T23:07:49.929Z,0.00
2018-03-19T23:10:17.535Z,0.00
2018-03-19T23:12:45.050Z,-0.10
2018-03-19T23:15:12.572Z,-0.10
2018-03-19T23:17:40.224Z,-0.10
2018-03-19T23:20:07.764Z,-0.10
2018-03-19T23:22:35.406Z,-0.10
2018-03-19T23:25:03.686Z,-0.10
2018-03-19T23:27:31.233Z,-0.20
2018-03-19T23:29:59.499Z,-0.20
2018-03-19T23:32:27.053Z,-0.30
2018-03-19T23:34:54.540Z,-0.30
2018-03-19T23:37:22.075Z,-0.40
2018-03-19T23:39:49.591Z,-0.50
2018-03-19T23:42:17.112Z,-0.50
2018-03-19T23:44:45.370Z,-0.60
2018-03-19T23:47:12.943Z,-0.60
2018-03-19T23:49:41.208Z,-0.50
2018-03-19T23:52:09.573Z,-0.50
2018-03-19T23:54:37.153Z,-0.50
2018-03-19T23:57:05.430Z,-0.40
2018-03-19T23:59:33.812Z,-0.40
